sensor_id;sensor_type;location;lat;lon;timestamp;P1;durP1;ratioP1;P2;durP2;ratioP2
55210;SDS011;41082;52.822;6.666;2024-01-11T00:00:09;34.70;;;20.00;;
55210;SDS011;41082;52.822;6.666;2024-01-11T00:02:35;33.42;;;19.58;;
55210;SDS011;41082;52.822;6.666;2024-01-11T00:05:01;37.60;;;21.77;;
55210;SDS011;41082;52.822;6.666;2024-01-11T00:07:27;37.63;;;19.85;;
55210;SDS011;41082;52.822;6.666;2024-01-11T00:09:52;33.90;;;19.45;;
55210;SDS011;41082;52.822;6.666;2024-01-11T00:12:18;36.85;;;21.60;;
55210;SDS011;41082;52.822;6.666;2024-01-11T00:14:44;35.85;;;21.33;;
55210;SDS011;41082;52.822;6.666;2024-01-11T00:17:09;35.58;;;19.95;;
55210;SDS011;41082;52.822;6.666;2024-01-11T00:19:35;34.90;;;20.17;;
55210;SDS011;41082;52.822;6.666;2024-01-11T00:22:00;36.97;;;20.15;;
55210;SDS011;41082;52.822;6.666;2024-01-11T00:24:26;37.58;;;20.13;;
55210;SDS011;41082;52.822;6.666;2024-01-11T00:26:52;31.70;;;18.85;;
55210;SDS011;41082;52.822;6.666;2024-01-11T00:29:18;32.33;;;19.60;;
55210;SDS011;41082;52.822;6.666;2024-01-11T00:31:43;37.63;;;20.30;;
55210;SDS011;41082;52.822;6.666;2024-01-11T00:34:09;35.60;;;20.67;;
55210;SDS011;41082;52.822;6.666;2024-01-11T00:36:35;37.95;;;20.58;;
55210;SDS011;41082;52.822;6.666;2024-01-11T00:39:01;37.42;;;20.05;;
55210;SDS011;41082;52.822;6.666;2024-01-11T00:41:27;35.83;;;20.35;;
55210;SDS011;41082;52.822;6.666;2024-01-11T00:43:53;36.53;;;20.45;;
55210;SDS011;41082;52.822;6.666;2024-01-11T00:46:18;38.00;;;20.63;;
55210;SDS011;41082;52.822;6.666;2024-01-11T00:48:44;36.78;;;20.75;;
55210;SDS011;41082;52.822;6.666;2024-01-11T00:51:10;39.63;;;20.48;;
55210;SDS011;41082;52.822;6.666;2024-01-11T00:53:36;37.50;;;20.88;;
55210;SDS011;41082;52.822;6.666;2024-01-11T00:56:01;36.47;;;20.13;;
55210;SDS011;41082;52.822;6.666;2024-01-11T00:58:27;38.70;;;20.75;;
55210;SDS011;41082;52.822;6.666;2024-01-11T01:00:53;36.92;;;19.80;;
55210;SDS011;41082;52.822;6.666;2024-01-11T01:03:22;37.22;;;20.13;;
55210;SDS011;41082;52.822;6.666;2024-01-11T01:05:47;36.78;;;20.77;;
55210;SDS011;41082;52.822;6.666;2024-01-11T01:08:13;40.67;;;21.65;;
55210;SDS011;41082;52.822;6.666;2024-01-11T01:10:39;37.78;;;19.92;;
55210;SDS011;41082;52.822;6.666;2024-01-11T01:13:05;36.88;;;19.95;;
55210;SDS011;41082;52.822;6.666;2024-01-11T01:15:30;40.15;;;21.17;;
55210;SDS011;41082;52.822;6.666;2024-01-11T01:17:56;36.60;;;19.75;;
55210;SDS011;41082;52.822;6.666;2024-01-11T01:20:22;39.13;;;20.52;;
55210;SDS011;41082;52.822;6.666;2024-01-11T01:22:48;39.10;;;20.45;;
55210;SDS011;41082;52.822;6.666;2024-01-11T01:25:14;39.95;;;20.73;;
55210;SDS011;41082;52.822;6.666;2024-01-11T01:27:40;40.28;;;21.25;;
55210;SDS011;41082;52.822;6.666;2024-01-11T01:30:06;38.13;;;20.30;;
55210;SDS011;41082;52.822;6.666;2024-01-11T01:32:33;39.00;;;20.08;;
55210;SDS011;41082;52.822;6.666;2024-01-11T01:34:59;37.10;;;20.20;;
55210;SDS011;41082;52.822;6.666;2024-01-11T01:37:25;41.45;;;20.95;;
55210;SDS011;41082;52.822;6.666;2024-01-11T01:39:50;38.17;;;19.85;;
55210;SDS011;41082;52.822;6.666;2024-01-11T01:42:16;35.80;;;20.27;;
55210;SDS011;41082;52.822;6.666;2024-01-11T01:44:42;39.08;;;20.70;;
55210;SDS011;41082;52.822;6.666;2024-01-11T01:47:07;41.03;;;20.85;;
55210;SDS011;41082;52.822;6.666;2024-01-11T01:49:35;38.15;;;19.98;;
55210;SDS011;41082;52.822;6.666;2024-01-11T01:52:02;37.03;;;19.58;;
55210;SDS011;41082;52.822;6.666;2024-01-11T01:54:28;39.17;;;21.05;;
55210;SDS011;41082;52.822;6.666;2024-01-11T01:56:56;36.42;;;19.38;;
55210;SDS011;41082;52.822;6.666;2024-01-11T01:59:22;39.05;;;20.27;;
55210;SDS011;41082;52.822;6.666;2024-01-11T02:01:50;39.33;;;19.63;;
55210;SDS011;41082;52.822;6.666;2024-01-11T02:04:16;35.38;;;19.30;;
55210;SDS011;41082;52.822;6.666;2024-01-11T02:06:42;37.08;;;20.98;;
55210;SDS011;41082;52.822;6.666;2024-01-11T02:09:11;40.25;;;20.63;;
55210;SDS011;41082;52.822;6.666;2024-01-11T02:11:38;38.65;;;19.90;;
55210;SDS011;41082;52.822;6.666;2024-01-11T02:14:05;39.63;;;18.70;;
55210;SDS011;41082;52.822;6.666;2024-01-11T02:16:30;36.58;;;18.65;;
55210;SDS011;41082;52.822;6.666;2024-01-11T02:18:56;39.22;;;21.17;;
55210;SDS011;41082;52.822;6.666;2024-01-11T02:21:22;38.83;;;20.17;;
55210;SDS011;41082;52.822;6.666;2024-01-11T02:24:04;37.60;;;19.27;;
55210;SDS011;41082;52.822;6.666;2024-01-11T02:26:30;36.58;;;18.83;;
55210;SDS011;41082;52.822;6.666;2024-01-11T02:28:56;37.40;;;19.80;;
55210;SDS011;41082;52.822;6.666;2024-01-11T02:31:21;37.05;;;19.65;;
55210;SDS011;41082;52.822;6.666;2024-01-11T02:33:47;37.90;;;20.77;;
55210;SDS011;41082;52.822;6.666;2024-01-11T02:36:13;35.05;;;18.92;;
55210;SDS011;41082;52.822;6.666;2024-01-11T02:38:39;34.58;;;18.35;;
55210;SDS011;41082;52.822;6.666;2024-01-11T02:41:07;35.47;;;18.75;;
55210;SDS011;41082;52.822;6.666;2024-01-11T02:43:33;34.13;;;18.92;;
55210;SDS011;41082;52.822;6.666;2024-01-11T02:46:01;38.53;;;19.42;;
55210;SDS011;41082;52.822;6.666;2024-01-11T02:48:30;37.55;;;19.77;;
55210;SDS011;41082;52.822;6.666;2024-01-11T02:50:57;40.05;;;20.98;;
55210;SDS011;41082;52.822;6.666;2024-01-11T02:53:23;40.60;;;20.33;;
55210;SDS011;41082;52.822;6.666;2024-01-11T02:55:50;37.22;;;19.85;;
55210;SDS011;41082;52.822;6.666;2024-01-11T02:58:16;39.55;;;20.23;;
55210;SDS011;41082;52.822;6.666;2024-01-11T03:00:41;38.88;;;20.63;;
55210;SDS011;41082;52.822;6.666;2024-01-11T03:03:07;37.30;;;18.98;;
55210;SDS011;41082;52.822;6.666;2024-01-11T03:05:33;39.42;;;20.35;;
55210;SDS011;41082;52.822;6.666;2024-01-11T03:07:58;42.05;;;21.25;;
55210;SDS011;41082;52.822;6.666;2024-01-11T03:10:24;40.22;;;20.60;;
55210;SDS011;41082;52.822;6.666;2024-01-11T03:12:50;38.75;;;20.50;;
55210;SDS011;41082;52.822;6.666;2024-01-11T03:15:15;42.95;;;21.13;;
55210;SDS011;41082;52.822;6.666;2024-01-11T03:17:41;42.08;;;20.75;;
55210;SDS011;41082;52.822;6.666;2024-01-11T03:20:07;40.88;;;21.80;;
55210;SDS011;41082;52.822;6.666;2024-01-11T03:22:33;41.40;;;21.08;;
55210;SDS011;41082;52.822;6.666;2024-01-11T03:24:59;40.38;;;21.55;;
55210;SDS011;41082;52.822;6.666;2024-01-11T03:27:25;43.10;;;21.77;;
55210;SDS011;41082;52.822;6.666;2024-01-11T03:29:50;41.72;;;21.42;;
55210;SDS011;41082;52.822;6.666;2024-01-11T03:32:16;39.45;;;20.85;;
55210;SDS011;41082;52.822;6.666;2024-01-11T03:34:42;43.83;;;22.38;;
55210;SDS011;41082;52.822;6.666;2024-01-11T03:37:07;43.42;;;22.33;;
55210;SDS011;41082;52.822;6.666;2024-01-11T03:39:33;44.78;;;21.77;;
55210;SDS011;41082;52.822;6.666;2024-01-11T03:41:59;41.20;;;20.98;;
55210;SDS011;41082;52.822;6.666;2024-01-11T03:44:25;43.08;;;21.80;;
55210;SDS011;41082;52.822;6.666;2024-01-11T03:46:50;41.92;;;21.00;;
55210;SDS011;41082;52.822;6.666;2024-01-11T03:49:16;39.97;;;20.73;;
55210;SDS011;41082;52.822;6.666;2024-01-11T03:51:42;45.53;;;21.73;;
55210;SDS011;41082;52.822;6.666;2024-01-11T03:54:09;44.78;;;22.50;;
55210;SDS011;41082;52.822;6.666;2024-01-11T03:56:38;46.45;;;21.33;;
55210;SDS011;41082;52.822;6.666;2024-01-11T03:59:06;42.58;;;20.60;;
55210;SDS011;41082;52.822;6.666;2024-01-11T04:01:32;40.63;;;21.90;;
55210;SDS011;41082;52.822;6.666;2024-01-11T04:03:58;44.28;;;21.48;;
55210;SDS011;41082;52.822;6.666;2024-01-11T04:06:24;40.00;;;21.10;;
55210;SDS011;41082;52.822;6.666;2024-01-11T04:08:50;40.75;;;21.70;;
55210;SDS011;41082;52.822;6.666;2024-01-11T04:11:16;42.03;;;20.45;;
55210;SDS011;41082;52.822;6.666;2024-01-11T04:13:42;40.22;;;21.60;;
55210;SDS011;41082;52.822;6.666;2024-01-11T04:16:08;44.58;;;22.80;;
55210;SDS011;41082;52.822;6.666;2024-01-11T04:18:34;39.03;;;20.67;;
55210;SDS011;41082;52.822;6.666;2024-01-11T04:21:00;39.90;;;20.48;;
55210;SDS011;41082;52.822;6.666;2024-01-11T04:23:25;40.08;;;20.83;;
55210;SDS011;41082;52.822;6.666;2024-01-11T04:25:51;43.13;;;20.95;;
55210;SDS011;41082;52.822;6.666;2024-01-11T04:28:17;39.28;;;20.95;;
55210;SDS011;41082;52.822;6.666;2024-01-11T04:30:42;39.25;;;20.52;;
55210;SDS011;41082;52.822;6.666;2024-01-11T04:33:09;37.88;;;19.58;;
55210;SDS011;41082;52.822;6.666;2024-01-11T04:35:34;38.22;;;19.23;;
55210;SDS011;41082;52.822;6.666;2024-01-11T04:38:00;36.35;;;19.17;;
55210;SDS011;41082;52.822;6.666;2024-01-11T04:40:25;39.25;;;19.75;;
55210;SDS011;41082;52.822;6.666;2024-01-11T04:42:51;39.65;;;20.75;;
55210;SDS011;41082;52.822;6.666;2024-01-11T04:45:17;40.67;;;20.38;;
55210;SDS011;41082;52.822;6.666;2024-01-11T04:47:42;40.63;;;20.42;;
55210;SDS011;41082;52.822;6.666;2024-01-11T04:50:08;43.08;;;22.10;;
55210;SDS011;41082;52.822;6.666;2024-01-11T04:52:34;40.63;;;20.50;;
55210;SDS011;41082;52.822;6.666;2024-01-11T04:55:00;41.78;;;20.08;;
55210;SDS011;41082;52.822;6.666;2024-01-11T04:57:26;42.05;;;21.27;;
55210;SDS011;41082;52.822;6.666;2024-01-11T04:59:52;35.97;;;19.17;;
55210;SDS011;41082;52.822;6.666;2024-01-11T05:02:20;40.80;;;20.30;;
55210;SDS011;41082;52.822;6.666;2024-01-11T05:04:46;44.83;;;21.30;;
55210;SDS011;41082;52.822;6.666;2024-01-11T05:07:12;39.60;;;19.95;;
55210;SDS011;41082;52.822;6.666;2024-01-11T05:09:38;43.65;;;21.10;;
55210;SDS011;41082;52.822;6.666;2024-01-11T05:12:04;38.80;;;20.55;;
55210;SDS011;41082;52.822;6.666;2024-01-11T05:14:30;43.78;;;22.45;;
55210;SDS011;41082;52.822;6.666;2024-01-11T05:16:56;41.38;;;21.15;;
55210;SDS011;41082;52.822;6.666;2024-01-11T05:19:21;40.78;;;21.20;;
55210;SDS011;41082;52.822;6.666;2024-01-11T05:21:47;44.42;;;21.83;;
55210;SDS011;41082;52.822;6.666;2024-01-11T05:24:12;42.83;;;21.77;;
55210;SDS011;41082;52.822;6.666;2024-01-11T05:26:38;43.55;;;21.73;;
55210;SDS011;41082;52.822;6.666;2024-01-11T05:29:04;44.55;;;22.67;;
55210;SDS011;41082;52.822;6.666;2024-01-11T05:31:30;45.70;;;22.85;;
55210;SDS011;41082;52.822;6.666;2024-01-11T05:33:55;51.97;;;24.63;;
55210;SDS011;41082;52.822;6.666;2024-01-11T05:36:21;48.45;;;24.50;;
55210;SDS011;41082;52.822;6.666;2024-01-11T05:38:47;50.30;;;24.45;;
55210;SDS011;41082;52.822;6.666;2024-01-11T05:41:12;52.45;;;26.38;;
55210;SDS011;41082;52.822;6.666;2024-01-11T05:43:39;56.88;;;27.98;;
55210;SDS011;41082;52.822;6.666;2024-01-11T05:46:05;55.85;;;26.30;;
55210;SDS011;41082;52.822;6.666;2024-01-11T05:48:32;51.15;;;25.30;;
55210;SDS011;41082;52.822;6.666;2024-01-11T05:50:57;50.80;;;24.75;;
55210;SDS011;41082;52.822;6.666;2024-01-11T05:53:23;52.55;;;26.88;;
55210;SDS011;41082;52.822;6.666;2024-01-11T05:55:50;47.15;;;23.73;;
55210;SDS011;41082;52.822;6.666;2024-01-11T05:58:15;48.75;;;22.60;;
55210;SDS011;41082;52.822;6.666;2024-01-11T06:00:41;44.47;;;23.27;;
55210;SDS011;41082;52.822;6.666;2024-01-11T06:03:07;46.50;;;23.80;;
55210;SDS011;41082;52.822;6.666;2024-01-11T06:05:33;43.78;;;23.00;;
55210;SDS011;41082;52.822;6.666;2024-01-11T06:07:58;41.47;;;22.55;;
55210;SDS011;41082;52.822;6.666;2024-01-11T06:10:24;44.72;;;22.70;;
55210;SDS011;41082;52.822;6.666;2024-01-11T06:12:49;47.90;;;24.05;;
55210;SDS011;41082;52.822;6.666;2024-01-11T06:15:15;42.88;;;22.95;;
55210;SDS011;41082;52.822;6.666;2024-01-11T06:17:41;44.38;;;22.77;;
55210;SDS011;41082;52.822;6.666;2024-01-11T06:20:07;43.85;;;23.17;;
55210;SDS011;41082;52.822;6.666;2024-01-11T06:22:32;45.40;;;23.45;;
55210;SDS011;41082;52.822;6.666;2024-01-11T06:24:58;40.00;;;21.60;;
55210;SDS011;41082;52.822;6.666;2024-01-11T06:27:24;44.45;;;22.15;;
55210;SDS011;41082;52.822;6.666;2024-01-11T06:29:50;41.83;;;23.08;;
55210;SDS011;41082;52.822;6.666;2024-01-11T06:32:16;44.63;;;22.35;;
55210;SDS011;41082;52.822;6.666;2024-01-11T06:34:41;47.80;;;24.65;;
55210;SDS011;41082;52.822;6.666;2024-01-11T06:37:10;42.70;;;23.50;;
55210;SDS011;41082;52.822;6.666;2024-01-11T06:39:36;43.33;;;22.85;;
55210;SDS011;41082;52.822;6.666;2024-01-11T06:42:02;45.05;;;22.45;;
55210;SDS011;41082;52.822;6.666;2024-01-11T06:44:28;44.30;;;23.27;;
55210;SDS011;41082;52.822;6.666;2024-01-11T06:46:53;40.80;;;21.60;;
55210;SDS011;41082;52.822;6.666;2024-01-11T06:49:19;46.90;;;23.58;;
55210;SDS011;41082;52.822;6.666;2024-01-11T06:51:45;44.92;;;22.58;;
55210;SDS011;41082;52.822;6.666;2024-01-11T06:54:11;48.67;;;22.48;;
55210;SDS011;41082;52.822;6.666;2024-01-11T06:56:36;80.78;;;24.88;;
55210;SDS011;41082;52.822;6.666;2024-01-11T06:59:02;45.47;;;23.30;;
55210;SDS011;41082;52.822;6.666;2024-01-11T07:01:28;44.50;;;24.52;;
55210;SDS011;41082;52.822;6.666;2024-01-11T07:03:53;45.33;;;22.20;;
55210;SDS011;41082;52.822;6.666;2024-01-11T07:06:19;49.47;;;24.77;;
55210;SDS011;41082;52.822;6.666;2024-01-11T07:08:44;40.95;;;22.45;;
55210;SDS011;41082;52.822;6.666;2024-01-11T07:11:10;40.92;;;22.88;;
55210;SDS011;41082;52.822;6.666;2024-01-11T07:13:36;43.78;;;22.58;;
55210;SDS011;41082;52.822;6.666;2024-01-11T07:16:02;44.00;;;23.40;;
55210;SDS011;41082;52.822;6.666;2024-01-11T07:18:28;47.70;;;24.27;;
55210;SDS011;41082;52.822;6.666;2024-01-11T07:20:58;42.75;;;22.25;;
55210;SDS011;41082;52.822;6.666;2024-01-11T07:23:24;44.75;;;22.90;;
55210;SDS011;41082;52.822;6.666;2024-01-11T07:25:50;44.63;;;23.63;;
55210;SDS011;41082;52.822;6.666;2024-01-11T07:28:15;54.72;;;28.30;;
55210;SDS011;41082;52.822;6.666;2024-01-11T07:30:42;65.63;;;33.35;;
55210;SDS011;41082;52.822;6.666;2024-01-11T07:33:08;57.70;;;29.42;;
55210;SDS011;41082;52.822;6.666;2024-01-11T07:35:34;53.03;;;26.33;;
55210;SDS011;41082;52.822;6.666;2024-01-11T07:38:00;51.60;;;26.27;;
55210;SDS011;41082;52.822;6.666;2024-01-11T07:40:26;45.65;;;24.98;;
55210;SDS011;41082;52.822;6.666;2024-01-11T07:42:51;47.17;;;24.10;;
55210;SDS011;41082;52.822;6.666;2024-01-11T07:45:17;46.20;;;24.85;;
55210;SDS011;41082;52.822;6.666;2024-01-11T07:47:44;46.15;;;24.65;;
55210;SDS011;41082;52.822;6.666;2024-01-11T07:50:09;46.05;;;23.63;;
55210;SDS011;41082;52.822;6.666;2024-01-11T07:52:35;44.72;;;23.73;;
55210;SDS011;41082;52.822;6.666;2024-01-11T07:55:06;44.53;;;23.85;;
55210;SDS011;41082;52.822;6.666;2024-01-11T07:57:33;44.22;;;23.65;;
55210;SDS011;41082;52.822;6.666;2024-01-11T07:59:59;45.58;;;22.02;;
55210;SDS011;41082;52.822;6.666;2024-01-11T08:02:25;43.72;;;22.65;;
55210;SDS011;41082;52.822;6.666;2024-01-11T08:04:51;44.15;;;23.65;;
55210;SDS011;41082;52.822;6.666;2024-01-11T08:07:17;39.40;;;21.65;;
55210;SDS011;41082;52.822;6.666;2024-01-11T08:09:42;40.70;;;22.48;;
55210;SDS011;41082;52.822;6.666;2024-01-11T08:12:16;43.85;;;24.20;;
55210;SDS011;41082;52.822;6.666;2024-01-11T08:14:42;42.17;;;22.67;;
55210;SDS011;41082;52.822;6.666;2024-01-11T08:17:08;39.83;;;21.77;;
55210;SDS011;41082;52.822;6.666;2024-01-11T08:19:34;42.38;;;23.02;;
55210;SDS011;41082;52.822;6.666;2024-01-11T08:22:00;42.25;;;23.42;;
55210;SDS011;41082;52.822;6.666;2024-01-11T08:24:26;43.28;;;22.02;;
55210;SDS011;41082;52.822;6.666;2024-01-11T08:26:51;45.20;;;23.55;;
55210;SDS011;41082;52.822;6.666;2024-01-11T08:29:17;43.40;;;22.73;;
55210;SDS011;41082;52.822;6.666;2024-01-11T08:31:47;44.17;;;24.35;;
55210;SDS011;41082;52.822;6.666;2024-01-11T08:34:13;43.63;;;22.98;;
55210;SDS011;41082;52.822;6.666;2024-01-11T08:36:38;46.58;;;24.73;;
55210;SDS011;41082;52.822;6.666;2024-01-11T08:39:07;51.15;;;25.38;;
55210;SDS011;41082;52.822;6.666;2024-01-11T08:41:37;50.25;;;26.95;;
55210;SDS011;41082;52.822;6.666;2024-01-11T08:44:03;43.13;;;23.80;;
55210;SDS011;41082;52.822;6.666;2024-01-11T08:46:31;43.60;;;23.65;;
55210;SDS011;41082;52.822;6.666;2024-01-11T08:48:58;46.17;;;24.83;;
55210;SDS011;41082;52.822;6.666;2024-01-11T08:51:25;39.67;;;22.77;;
55210;SDS011;41082;52.822;6.666;2024-01-11T08:53:51;41.67;;;23.40;;
55210;SDS011;41082;52.822;6.666;2024-01-11T08:56:20;42.80;;;23.73;;
55210;SDS011;41082;52.822;6.666;2024-01-11T08:58:46;43.97;;;23.75;;
55210;SDS011;41082;52.822;6.666;2024-01-11T09:01:13;49.42;;;25.38;;
55210;SDS011;41082;52.822;6.666;2024-01-11T09:03:39;43.90;;;23.55;;
55210;SDS011;41082;52.822;6.666;2024-01-11T09:06:05;42.13;;;23.75;;
55210;SDS011;41082;52.822;6.666;2024-01-11T09:08:31;44.72;;;24.80;;
55210;SDS011;41082;52.822;6.666;2024-01-11T09:10:56;44.45;;;23.98;;
55210;SDS011;41082;52.822;6.666;2024-01-11T09:13:25;44.72;;;24.33;;
55210;SDS011;41082;52.822;6.666;2024-01-11T09:15:52;40.10;;;22.67;;
55210;SDS011;41082;52.822;6.666;2024-01-11T09:18:18;46.33;;;25.23;;
55210;SDS011;41082;52.822;6.666;2024-01-11T09:20:44;44.47;;;24.55;;
55210;SDS011;41082;52.822;6.666;2024-01-11T09:23:11;46.95;;;26.13;;
55210;SDS011;41082;52.822;6.666;2024-01-11T09:25:36;48.78;;;25.92;;
55210;SDS011;41082;52.822;6.666;2024-01-11T09:28:02;46.40;;;26.75;;
55210;SDS011;41082;52.822;6.666;2024-01-11T09:30:28;50.15;;;25.42;;
55210;SDS011;41082;52.822;6.666;2024-01-11T09:32:54;44.53;;;25.30;;
55210;SDS011;41082;52.822;6.666;2024-01-11T09:35:21;48.35;;;25.75;;
55210;SDS011;41082;52.822;6.666;2024-01-11T09:37:48;42.00;;;24.33;;
55210;SDS011;41082;52.822;6.666;2024-01-11T09:40:14;46.80;;;26.27;;
55210;SDS011;41082;52.822;6.666;2024-01-11T09:42:41;47.65;;;25.27;;
55210;SDS011;41082;52.822;6.666;2024-01-11T09:45:07;45.80;;;24.73;;
55210;SDS011;41082;52.822;6.666;2024-01-11T09:47:38;41.90;;;23.80;;
55210;SDS011;41082;52.822;6.666;2024-01-11T09:50:04;44.55;;;24.50;;
55210;SDS011;41082;52.822;6.666;2024-01-11T09:52:31;44.05;;;24.70;;
55210;SDS011;41082;52.822;6.666;2024-01-11T09:54:58;48.10;;;25.35;;
55210;SDS011;41082;52.822;6.666;2024-01-11T09:57:24;47.42;;;23.67;;
55210;SDS011;41082;52.822;6.666;2024-01-11T09:59:54;42.92;;;23.67;;
55210;SDS011;41082;52.822;6.666;2024-01-11T10:02:22;42.90;;;23.48;;
55210;SDS011;41082;52.822;6.666;2024-01-11T10:04:54;38.53;;;22.98;;
55210;SDS011;41082;52.822;6.666;2024-01-11T10:07:23;43.40;;;23.52;;
55210;SDS011;41082;52.822;6.666;2024-01-11T10:09:50;45.03;;;23.73;;
55210;SDS011;41082;52.822;6.666;2024-01-11T10:12:19;44.00;;;24.30;;
55210;SDS011;41082;52.822;6.666;2024-01-11T10:14:48;41.05;;;24.05;;
55210;SDS011;41082;52.822;6.666;2024-01-11T10:17:14;41.65;;;23.00;;
55210;SDS011;41082;52.822;6.666;2024-01-11T10:19:39;45.90;;;23.70;;
55210;SDS011;41082;52.822;6.666;2024-01-11T10:22:05;49.45;;;26.17;;
55210;SDS011;41082;52.822;6.666;2024-01-11T10:24:31;47.03;;;24.65;;
55210;SDS011;41082;52.822;6.666;2024-01-11T10:26:57;45.67;;;24.60;;
55210;SDS011;41082;52.822;6.666;2024-01-11T10:29:35;45.70;;;24.48;;
55210;SDS011;41082;52.822;6.666;2024-01-11T10:32:03;43.60;;;23.75;;
55210;SDS011;41082;52.822;6.666;2024-01-11T10:34:29;45.60;;;23.88;;
55210;SDS011;41082;52.822;6.666;2024-01-11T10:36:54;46.40;;;25.83;;
55210;SDS011;41082;52.822;6.666;2024-01-11T10:39:26;42.00;;;23.60;;
55210;SDS011;41082;52.822;6.666;2024-01-11T10:42:13;43.95;;;23.98;;
55210;SDS011;41082;52.822;6.666;2024-01-11T10:44:38;45.08;;;23.60;;
55210;SDS011;41082;52.822;6.666;2024-01-11T10:47:12;44.08;;;23.50;;
55210;SDS011;41082;52.822;6.666;2024-01-11T10:49:40;42.97;;;23.20;;
55210;SDS011;41082;52.822;6.666;2024-01-11T10:52:07;44.92;;;24.67;;
55210;SDS011;41082;52.822;6.666;2024-01-11T10:54:35;45.88;;;24.95;;
55210;SDS011;41082;52.822;6.666;2024-01-11T10:57:03;40.53;;;23.15;;
55210;SDS011;41082;52.822;6.666;2024-01-11T10:59:31;41.80;;;23.55;;
55210;SDS011;41082;52.822;6.666;2024-01-11T11:02:00;43.22;;;23.20;;
55210;SDS011;41082;52.822;6.666;2024-01-11T11:04:33;44.30;;;22.90;;
55210;SDS011;41082;52.822;6.666;2024-01-11T11:07:00;37.92;;;20.80;;
55210;SDS011;41082;52.822;6.666;2024-01-11T11:09:27;36.20;;;20.92;;
55210;SDS011;41082;52.822;6.666;2024-01-11T11:11:56;39.88;;;21.67;;
55210;SDS011;41082;52.822;6.666;2024-01-11T11:14:24;39.50;;;21.55;;
55210;SDS011;41082;52.822;6.666;2024-01-11T11:16:50;40.67;;;22.77;;
55210;SDS011;41082;52.822;6.666;2024-01-11T11:19:19;38.95;;;21.35;;
55210;SDS011;41082;52.822;6.666;2024-01-11T11:21:45;40.83;;;22.35;;
55210;SDS011;41082;52.822;6.666;2024-01-11T11:24:13;38.15;;;21.42;;
55210;SDS011;41082;52.822;6.666;2024-01-11T11:26:39;37.75;;;21.83;;
55210;SDS011;41082;52.822;6.666;2024-01-11T11:29:05;39.15;;;21.67;;
55210;SDS011;41082;52.822;6.666;2024-01-11T11:31:37;38.65;;;21.42;;
55210;SDS011;41082;52.822;6.666;2024-01-11T11:34:04;38.47;;;20.67;;
55210;SDS011;41082;52.822;6.666;2024-01-11T11:36:30;37.67;;;21.52;;
55210;SDS011;41082;52.822;6.666;2024-01-11T11:39:00;35.90;;;21.48;;
55210;SDS011;41082;52.822;6.666;2024-01-11T11:41:27;39.97;;;22.45;;
55210;SDS011;41082;52.822;6.666;2024-01-11T11:43:53;42.15;;;22.75;;
55210;SDS011;41082;52.822;6.666;2024-01-11T11:46:19;42.65;;;23.98;;
55210;SDS011;41082;52.822;6.666;2024-01-11T11:48:48;39.50;;;23.52;;
55210;SDS011;41082;52.822;6.666;2024-01-11T11:51:16;44.00;;;23.95;;
55210;SDS011;41082;52.822;6.666;2024-01-11T11:53:43;41.97;;;24.00;;
55210;SDS011;41082;52.822;6.666;2024-01-11T11:56:11;37.88;;;22.02;;
55210;SDS011;41082;52.822;6.666;2024-01-11T11:58:40;44.03;;;23.35;;
55210;SDS011;41082;52.822;6.666;2024-01-11T12:01:05;42.00;;;23.23;;
55210;SDS011;41082;52.822;6.666;2024-01-11T12:03:32;44.60;;;22.88;;
55210;SDS011;41082;52.822;6.666;2024-01-11T12:06:03;40.10;;;22.02;;
55210;SDS011;41082;52.822;6.666;2024-01-11T12:08:33;44.42;;;23.42;;
55210;SDS011;41082;52.822;6.666;2024-01-11T12:11:02;45.63;;;25.27;;
55210;SDS011;41082;52.822;6.666;2024-01-11T12:13:29;45.45;;;23.60;;
55210;SDS011;41082;52.822;6.666;2024-01-11T12:15:56;47.78;;;24.55;;
55210;SDS011;41082;52.822;6.666;2024-01-11T12:18:22;41.72;;;22.15;;
55210;SDS011;41082;52.822;6.666;2024-01-11T12:20:47;41.03;;;21.40;;
55210;SDS011;41082;52.822;6.666;2024-01-11T12:23:13;40.40;;;22.25;;
55210;SDS011;41082;52.822;6.666;2024-01-11T12:25:40;41.38;;;22.88;;
55210;SDS011;41082;52.822;6.666;2024-01-11T12:28:06;40.70;;;22.75;;
55210;SDS011;41082;52.822;6.666;2024-01-11T12:30:32;40.33;;;21.73;;
55210;SDS011;41082;52.822;6.666;2024-01-11T12:32:58;40.42;;;22.50;;
55210;SDS011;41082;52.822;6.666;2024-01-11T12:35:28;37.42;;;21.20;;
55210;SDS011;41082;52.822;6.666;2024-01-11T12:37:58;39.22;;;22.40;;
55210;SDS011;41082;52.822;6.666;2024-01-11T12:40:25;36.00;;;21.05;;
55210;SDS011;41082;52.822;6.666;2024-01-11T12:42:56;38.08;;;20.63;;
55210;SDS011;41082;52.822;6.666;2024-01-11T12:45:23;40.40;;;21.27;;
55210;SDS011;41082;52.822;6.666;2024-01-11T12:47:51;41.72;;;20.88;;
55210;SDS011;41082;52.822;6.666;2024-01-11T12:50:17;39.42;;;20.38;;
55210;SDS011;41082;52.822;6.666;2024-01-11T12:52:43;39.55;;;21.30;;
55210;SDS011;41082;52.822;6.666;2024-01-11T12:55:17;40.03;;;20.98;;
55210;SDS011;41082;52.822;6.666;2024-01-11T12:57:43;40.85;;;21.65;;
55210;SDS011;41082;52.822;6.666;2024-01-11T13:00:13;44.08;;;21.20;;
55210;SDS011;41082;52.822;6.666;2024-01-11T13:05:09;41.75;;;19.55;;
55210;SDS011;41082;52.822;6.666;2024-01-11T13:07:38;39.65;;;19.83;;
55210;SDS011;41082;52.822;6.666;2024-01-11T13:10:04;39.65;;;20.27;;
55210;SDS011;41082;52.822;6.666;2024-01-11T13:12:30;36.65;;;18.92;;
55210;SDS011;41082;52.822;6.666;2024-01-11T13:14:56;44.13;;;22.73;;
55210;SDS011;41082;52.822;6.666;2024-01-11T13:17:22;42.72;;;21.85;;
55210;SDS011;41082;52.822;6.666;2024-01-11T13:19:47;41.47;;;19.85;;
55210;SDS011;41082;52.822;6.666;2024-01-11T13:22:13;42.22;;;21.80;;
55210;SDS011;41082;52.822;6.666;2024-01-11T13:24:39;42.63;;;22.77;;
55210;SDS011;41082;52.822;6.666;2024-01-11T13:27:04;40.67;;;20.80;;
55210;SDS011;41082;52.822;6.666;2024-01-11T13:29:32;39.78;;;20.98;;
55210;SDS011;41082;52.822;6.666;2024-01-11T13:31:57;43.22;;;21.48;;
55210;SDS011;41082;52.822;6.666;2024-01-11T13:34:23;39.72;;;20.20;;
55210;SDS011;41082;52.822;6.666;2024-01-11T13:36:49;36.53;;;20.90;;
55210;SDS011;41082;52.822;6.666;2024-01-11T13:39:15;40.13;;;20.40;;
55210;SDS011;41082;52.822;6.666;2024-01-11T13:41:43;41.40;;;21.38;;
55210;SDS011;41082;52.822;6.666;2024-01-11T13:44:09;37.70;;;20.13;;
55210;SDS011;41082;52.822;6.666;2024-01-11T13:46:36;42.72;;;20.88;;
55210;SDS011;41082;52.822;6.666;2024-01-11T13:49:02;41.03;;;20.67;;
55210;SDS011;41082;52.822;6.666;2024-01-11T13:51:28;43.75;;;22.23;;
55210;SDS011;41082;52.822;6.666;2024-01-11T13:53:57;46.33;;;21.13;;
55210;SDS011;41082;52.822;6.666;2024-01-11T13:56:24;40.38;;;21.85;;
55210;SDS011;41082;52.822;6.666;2024-01-11T13:58:50;46.85;;;22.17;;
55210;SDS011;41082;52.822;6.666;2024-01-11T14:01:15;41.53;;;21.05;;
55210;SDS011;41082;52.822;6.666;2024-01-11T14:03:41;47.85;;;22.52;;
55210;SDS011;41082;52.822;6.666;2024-01-11T14:06:07;44.00;;;21.95;;
55210;SDS011;41082;52.822;6.666;2024-01-11T14:08:32;41.78;;;22.55;;
55210;SDS011;41082;52.822;6.666;2024-01-11T14:10:58;38.78;;;20.65;;
55210;SDS011;41082;52.822;6.666;2024-01-11T14:13:24;43.08;;;21.73;;
55210;SDS011;41082;52.822;6.666;2024-01-11T14:15:49;39.60;;;20.15;;
55210;SDS011;41082;52.822;6.666;2024-01-11T14:18:16;40.33;;;20.92;;